Time;durP1;ratioP1;P1;durP2;ratioP2;P2;SDS_P1;SDS_P2;PMS_P1;PMS_P2;Temp;Humidity;BMP_temperature;BMP_pressure;BME280_temperature;BME280_humidity;BME280_pressure;Samples;Min_cycle;Max_cycle;Signal;HPM_P1;HPM_P2
2021/10/06 00:01:09;;;;;;;2.05;1.95;;;15.60;99.90;;;;;;4917197;29;20047;-81
2021/10/06 00:03:36;;;;;;;2.10;2.00;;;15.50;99.90;;;;;;4901908;29;20587;-83
2021/10/06 00:06:04;;;;;;;3.10;2.88;;;15.50;99.90;;;;;;4932584;29;20073;-85
2021/10/06 00:08:32;;;;;;;2.13;2.03;;;15.80;99.90;;;;;;4934852;29;20349;-82
2021/10/06 00:24:36;;;;;;;2.70;2.50;;;16.10;99.90;;;;;;4933166;29;20056;-85
2021/10/06 00:27:04;;;;;;;2.35;2.15;;;16.10;99.90;;;;;;4918191;29;20044;-83
2021/10/06 00:29:31;;;;;;;2.00;1.90;;;16.00;99.90;;;;;;4924089;29;20196;-83
2021/10/06 00:31:58;;;;;;;2.03;1.92;;;16.00;99.90;;;;;;4937068;29;20035;-82
2021/10/06 00:34:29;;;;;;;2.75;2.55;;;16.00;99.90;;;;;;4954028;29;20050;-81
2021/10/06 00:36:56;;;;;;;2.00;1.88;;;15.90;99.90;;;;;;4936962;29;20027;-80
2021/10/06 00:39:24;;;;;;;2.17;2.05;;;16.00;99.90;;;;;;4954627;28;20480;-80
2021/10/06 00:41:56;;;;;;;2.38;2.17;;;15.90;99.90;;;;;;4956991;29;20035;-83
2021/10/06 00:44:23;;;;;;;3.50;3.20;;;15.90;99.90;;;;;;4940189;29;20130;-82
2021/10/06 00:46:51;;;;;;;3.28;3.03;;;15.80;99.90;;;;;;4939703;29;20854;-81
2021/10/06 00:49:23;;;;;;;3.30;3.05;;;15.80;99.90;;;;;;4939946;29;20131;-83
2021/10/06 00:51:50;;;;;;;2.60;2.40;;;15.80;99.90;;;;;;4939313;29;20044;-82
2021/10/06 00:54:18;;;;;;;2.00;1.90;;;15.70;99.90;;;;;;4924122;29;20044;-83
2021/10/06 00:56:45;;;;;;;2.22;2.08;;;15.70;99.90;;;;;;4939502;29;20043;-83
2021/10/06 00:59:13;;;;;;;7.90;3.25;;;15.70;99.90;;;;;;4939297;29;20137;-84
2021/10/06 01:01:59;;;;;;;3.28;3.05;;;15.70;99.90;;;;;;4956603;29;20069;-83
2021/10/06 01:04:27;;;;;;;3.28;3.08;;;15.70;99.90;;;;;;4939326;29;20070;-81
2021/10/06 01:06:54;;;;;;;2.13;2.00;;;15.60;99.90;;;;;;4956213;29;20050;-86
2021/10/06 01:09:27;;;;;;;2.33;2.13;;;15.70;99.90;;;;;;4923871;29;20102;-84
2021/10/06 01:11:55;;;;;;;2.63;2.42;;;15.70;99.90;;;;;;4923442;29;20039;-85
2021/10/06 01:14:23;;;;;;;2.03;1.92;;;15.70;99.90;;;;;;4956767;29;20428;-84
2021/10/06 01:16:52;;;;;;;3.70;2.97;;;15.80;99.90;;;;;;4939233;29;20041;-84
2021/10/06 01:19:28;;;;;;;2.58;2.38;;;15.90;99.90;;;;;;4939352;29;20039;-85
2021/10/06 01:21:57;;;;;;;2.00;1.90;;;15.70;99.90;;;;;;4939360;29;20051;-83
2021/10/06 01:24:30;;;;;;;2.35;2.10;;;15.70;99.90;;;;;;4957373;28;20430;-83
2021/10/06 01:35:47;;;;;;;2.38;2.17;;;15.20;99.90;;;;;;4910783;29;20056;-82
2021/10/06 01:38:16;;;;;;;3.35;3.13;;;14.80;99.90;;;;;;4901146;29;20056;-83
2021/10/06 01:40:43;;;;;;;2.38;2.17;;;14.90;99.90;;;;;;4917844;29;20543;-83
2021/10/06 01:43:11;;;;;;;2.50;2.30;;;15.20;99.90;;;;;;4900530;29;20120;-83
2021/10/06 01:45:41;;;;;;;2.72;2.50;;;15.50;99.90;;;;;;4885226;29;20460;-84
2021/10/06 01:48:10;;;;;;;;;;;15.40;99.90;;;;;;4901702;29;20396;-81
2021/10/06 01:50:39;;;;;;;2.22;2.05;;;15.20;99.90;;;;;;4899851;29;19923;-80
2021/10/06 01:53:08;;;;;;;2.17;2.05;;;15.60;99.90;;;;;;4901426;29;20048;-82
2021/10/06 01:55:36;;;;;;;2.10;2.00;;;15.80;99.90;;;;;;4918631;29;20451;-82
2021/10/06 01:58:09;;;;;;;2.10;2.00;;;15.90;99.90;;;;;;4918317;29;20432;-81
2021/10/06 02:00:38;;;;;;;2.45;2.25;;;15.90;99.90;;;;;;4918147;29;20408;-82
2021/10/06 02:03:06;;;;;;;2.25;2.10;;;15.90;99.90;;;;;;4901427;29;20052;-83
2021/10/06 02:05:33;;;;;;;2.00;1.90;;;15.70;99.90;;;;;;4901443;29;20437;-83
2021/10/06 02:08:02;;;;;;;1.92;1.83;;;15.70;99.90;;;;;;4900940;29;20036;-84
2021/10/06 02:10:30;;;;;;;3.35;3.03;;;15.80;99.90;;;;;;4900610;29;20048;-82
2021/10/06 02:13:22;;;;;;;2.15;2.03;;;15.80;99.90;;;;;;4917348;29;20048;-83
2021/10/06 02:16:21;;;;;;;;;;;;;;;;;;;;;
2021/10/06 02:19:14;;;;;;;2.55;2.35;;;15.80;99.90;;;;;;4900064;29;20036;-82
2021/10/06 02:21:42;;;;;;;2.15;2.05;;;15.60;99.90;;;;;;4900375;29;20083;-83
2021/10/06 02:24:09;;;;;;;2.53;2.33;;;15.50;99.90;;;;;;4917739;29;20095;-82
2021/10/06 02:26:37;;;;;;;3.35;3.03;;;15.60;99.90;;;;;;4885486;29;20055;-81
2021/10/06 02:29:04;;;;;;;2.63;2.42;;;15.70;99.90;;;;;;4918135;29;20455;-83
2021/10/06 02:31:31;;;;;;;2.00;1.90;;;15.60;99.90;;;;;;4937465;29;20095;-82
2021/10/06 02:33:59;;;;;;;2.53;2.33;;;15.50;99.90;;;;;;4938819;29;20043;-83
2021/10/06 02:36:29;;;;;;;2.83;2.63;;;15.00;99.90;;;;;;4923450;29;20451;-82
2021/10/06 02:38:57;;;;;;;2.47;2.28;;;14.90;99.90;;;;;;4954992;29;20078;-83
2021/10/06 02:41:24;;;;;;;6.10;4.40;;;15.10;99.90;;;;;;4937412;29;20059;-81
2021/10/06 02:43:51;;;;;;;2.10;2.00;;;15.40;99.90;;;;;;4954915;29;20039;-82
2021/10/06 02:46:19;;;;;;;1.90;1.80;;;15.40;99.90;;;;;;4937706;29;20126;-84
2021/10/06 02:48:46;;;;;;;3.80;3.42;;;15.50;99.90;;;;;;4937447;29;20440;-82
2021/10/06 02:51:14;;;;;;;2.10;2.00;;;15.50;99.90;;;;;;4937881;29;20062;-82
2021/10/06 02:53:44;;;;;;;2.38;2.17;;;15.50;99.90;;;;;;4922030;29;20051;-82
2021/10/06 02:56:11;;;;;;;1.98;1.88;;;15.20;99.90;;;;;;4954576;29;20604;-84
2021/10/06 02:58:39;;;;;;;2.05;1.95;;;15.40;99.90;;;;;;4954278;29;20440;-82
2021/10/06 03:01:06;;;;;;;2.15;2.00;;;15.50;99.90;;;;;;4937652;29;20130;-81
2021/10/06 03:03:34;;;;;;;2.00;1.90;;;15.70;99.90;;;;;;4937222;29;20051;-83
2021/10/06 03:06:02;;;;;;;2.90;2.70;;;15.80;99.90;;;;;;4937662;29;20414;-82
2021/10/06 03:08:30;;;;;;;3.28;2.97;;;15.80;99.90;;;;;;4938221;29;20043;-82
2021/10/06 03:10:57;;;;;;;2.00;1.90;;;15.80;99.90;;;;;;4937981;29;20046;-82
2021/10/06 03:13:25;;;;;;;2.22;2.05;;;15.90;99.90;;;;;;4938167;29;20415;-79
2021/10/06 03:15:54;;;;;;;2.30;2.15;;;15.90;99.90;;;;;;4937328;29;20178;-79
2021/10/06 03:18:21;;;;;;;2.40;2.20;;;15.70;99.90;;;;;;4955188;29;20149;-82
2021/10/06 03:20:48;;;;;;;2.35;2.15;;;15.80;99.90;;;;;;4937949;29;20046;-83
2021/10/06 03:23:16;;;;;;;2.22;2.10;;;15.70;99.90;;;;;;4921282;29;20130;-83
2021/10/06 03:25:44;;;;;;;2.72;2.45;;;15.70;99.90;;;;;;4936833;29;20411;-83
2021/10/06 03:28:16;;;;;;;2.25;2.10;;;15.60;99.90;;;;;;4936789;29;20050;-83
2021/10/06 03:30:43;;;;;;;2.78;2.58;;;15.50;99.90;;;;;;4925908;29;20055;-83
2021/10/06 03:33:11;;;;;;;2.55;2.35;;;15.40;99.90;;;;;;4917627;29;20055;-83
2021/10/06 03:35:38;;;;;;;2.88;2.67;;;15.50;99.90;;;;;;4917680;29;20046;-82
2021/10/06 03:38:06;;;;;;;2.10;2.00;;;15.50;99.90;;;;;;4902054;29;20060;-84
2021/10/06 03:40:33;;;;;;;2.42;2.22;;;15.50;99.90;;;;;;4917742;29;20050;-83
2021/10/06 03:43:04;;;;;;;2.53;2.33;;;15.50;99.90;;;;;;4934534;29;20055;-82
2021/10/06 03:51:37;;;;;;;7.00;3.45;;;15.10;99.90;;;;;;5066091;23;20052;-81
2021/10/06 03:54:05;;;;;;;2.40;2.20;;;15.00;99.90;;;;;;4935122;29;20058;-82
2021/10/06 03:56:36;;;;;;;2.50;2.30;;;14.90;99.90;;;;;;4934127;29;20036;-84
2021/10/06 03:59:04;;;;;;;2.10;2.00;;;14.80;99.90;;;;;;4918168;29;20428;-84
2021/10/06 04:01:31;;;;;;;2.72;2.53;;;14.70;99.90;;;;;;4935238;29;20131;-84
2021/10/06 04:03:59;;;;;;;2.05;1.95;;;14.60;99.90;;;;;;4935275;29;20040;-83
2021/10/06 04:06:26;;;;;;;2.60;2.40;;;14.70;99.90;;;;;;4933776;29;20127;-83
2021/10/06 04:08:53;;;;;;;2.50;2.30;;;14.80;99.90;;;;;;4917733;29;20044;-84
2021/10/06 04:11:21;;;;;;;2.30;2.10;;;14.90;99.90;;;;;;4933059;29;20043;-82
2021/10/06 04:13:49;;;;;;;3.47;3.17;;;15.00;99.90;;;;;;4932418;29;20067;-84
2021/10/06 04:16:16;;;;;;;3.55;3.25;;;15.00;99.90;;;;;;4917098;29;20048;-79
2021/10/06 04:22:44;;;;;;;2.40;2.20;;;15.20;99.90;;;;;;4934650;29;20062;-84
2021/10/06 04:25:11;;;;;;;2.60;2.40;;;15.10;99.90;;;;;;4917062;29;20058;-85
2021/10/06 04:27:38;;;;;;;2.10;2.00;;;15.20;99.90;;;;;;4933914;29;20110;-83
2021/10/06 04:30:07;;;;;;;2.33;2.13;;;15.20;99.90;;;;;;4917029;29;20468;-81
2021/10/06 04:32:35;;;;;;;2.65;2.45;;;15.20;99.90;;;;;;4934398;29;20044;-84
2021/10/06 04:35:03;;;;;;;3.45;2.90;;;15.20;99.90;;;;;;4917165;29;20073;-82
2021/10/06 04:37:30;;;;;;;2.40;2.20;;;15.20;99.90;;;;;;4917226;29;20462;-83
2021/10/06 04:39:58;;;;;;;3.03;2.83;;;15.20;99.90;;;;;;4918059;29;20050;-83
2021/10/06 04:42:25;;;;;;;2.50;2.30;;;15.20;99.90;;;;;;4917917;29;20058;-83
2021/10/06 04:44:54;;;;;;;4.32;3.92;;;15.20;99.90;;;;;;4902028;29;20075;-84
2021/10/06 04:47:22;;;;;;;3.60;3.30;;;15.20;99.90;;;;;;4918386;29;20043;-83
2021/10/06 04:50:42;;;;;;;2.80;2.60;;;15.30;99.90;;;;;;4934361;29;20429;-80
2021/10/06 04:53:13;;;;;;;2.25;2.10;;;15.30;99.90;;;;;;4917964;29;20127;-83
2021/10/06 05:03:42;;;;;;;2.83;2.63;;;15.50;99.90;;;;;;4922752;29;20396;-84
2021/10/06 05:06:13;;;;;;;2.13;2.03;;;15.60;99.90;;;;;;4945581;23;20439;-82
2021/10/06 05:08:40;;;;;;;2.42;2.22;;;15.50;99.90;;;;;;4917228;29;20047;-86
2021/10/06 05:11:07;;;;;;;2.10;2.00;;;15.70;99.90;;;;;;4934587;29;20122;-82
2021/10/06 05:13:35;;;;;;;2.60;2.40;;;15.80;99.90;;;;;;4918373;29;20138;-85
2021/10/06 05:16:03;;;;;;;2.58;2.38;;;15.80;99.90;;;;;;4920135;29;20044;-91
2021/10/06 05:18:30;;;;;;;4.38;3.97;;;15.70;99.90;;;;;;4910445;29;20099;-82
2021/10/06 05:20:58;;;;;;;5.90;2.95;;;15.60;99.90;;;;;;4920717;29;20040;-86
2021/10/06 05:23:25;;;;;;;2.95;2.75;;;15.70;99.90;;;;;;4930186;29;20100;-87
2021/10/06 05:26:02;;;;;;;4.07;3.67;;;15.70;99.90;;;;;;4918083;29;20123;-89
2021/10/06 05:28:29;;;;;;;7.35;3.97;;;15.70;99.90;;;;;;4917580;29;20028;-78
2021/10/06 05:30:56;;;;;;;3.92;2.88;;;15.70;99.90;;;;;;4926216;29;20046;-84
2021/10/06 05:33:24;;;;;;;10.32;3.90;;;15.80;99.90;;;;;;4910148;29;20040;-80
2021/10/06 05:35:53;;;;;;;2.35;2.15;;;15.90;99.90;;;;;;4910802;29;20118;-83
2021/10/06 05:38:21;;;;;;;5.30;4.70;;;15.90;99.90;;;;;;4929364;29;20064;-84
2021/10/06 05:40:48;;;;;;;3.05;2.85;;;15.80;99.90;;;;;;4927783;29;20040;-87
2021/10/06 05:43:16;;;;;;;2.00;1.90;;;15.80;99.90;;;;;;4917313;29;20114;-79
2021/10/06 05:45:43;;;;;;;3.03;2.70;;;15.70;99.90;;;;;;4906434;29;20474;-80
2021/10/06 05:48:10;;;;;;;2.65;2.45;;;15.80;99.90;;;;;;4922058;29;20141;-80
2021/10/06 05:50:38;;;;;;;51.55;4.53;;;15.90;99.90;;;;;;4934598;29;20439;-87
2021/10/06 05:53:20;;;;;;;3.35;3.05;;;15.60;99.90;;;;;;4920651;29;20407;-82
2021/10/06 05:55:48;;;;;;;2.17;2.08;;;15.50;99.90;;;;;;4919165;29;20035;-92
2021/10/06 05:58:25;;;;;;;2.88;2.67;;;15.70;99.90;;;;;;4936405;29;20118;-84
2021/10/06 06:00:53;;;;;;;3.17;2.97;;;15.70;99.90;;;;;;4905020;29;20415;-89
2021/10/06 06:03:20;;;;;;;5.55;4.03;;;15.80;99.90;;;;;;4921465;29;20039;-91
2021/10/06 06:05:47;;;;;;;3.65;3.35;;;15.70;99.90;;;;;;4919750;29;20140;-83
2021/10/06 06:08:15;;;;;;;2.63;2.42;;;15.80;99.90;;;;;;4937031;29;20043;-85
2021/10/06 06:10:42;;;;;;;1.90;1.80;;;15.80;99.90;;;;;;4920081;29;20043;-90
2021/10/06 06:13:09;;;;;;;11.80;2.55;;;15.80;99.90;;;;;;4920319;29;20066;-88
2021/10/06 06:15:43;;;;;;;1.95;1.85;;;15.90;99.90;;;;;;4920325;29;20036;-88
2021/10/06 06:18:11;;;;;;;4.13;3.05;;;15.80;99.90;;;;;;4936811;29;20368;-89
2021/10/06 06:20:49;;;;;;;3.30;3.00;;;15.30;99.90;;;;;;4920326;29;20051;-89
2021/10/06 06:23:50;;;;;;;2.30;2.10;;;15.50;99.90;;;;;;4904979;29;20043;-89
2021/10/06 06:26:33;;;;;;;2.95;2.75;;;15.70;99.90;;;;;;4883090;29;20396;-90
2021/10/06 06:29:01;;;;;;;1.95;1.85;;;15.50;99.90;;;;;;4902200;29;20059;-86
2021/10/06 06:31:38;;;;;;;2.50;2.30;;;15.30;99.90;;;;;;4923336;29;20478;-89
2021/10/06 06:34:06;;;;;;;2.47;2.28;;;15.70;99.90;;;;;;4937656;29;20086;-89
2021/10/06 06:36:33;;;;;;;2.47;2.28;;;16.00;99.90;;;;;;4937544;29;20498;-88
2021/10/06 06:39:04;;;;;;;1.90;1.80;;;16.20;99.90;;;;;;4919403;29;20041;-90
2021/10/06 06:41:32;;;;;;;1.80;1.70;;;16.30;99.90;;;;;;4902750;29;20044;-88
2021/10/06 06:44:08;;;;;;;2.95;2.75;;;16.50;99.90;;;;;;4945616;29;20114;-90
2021/10/06 06:46:36;;;;;;;1.80;1.70;;;16.60;99.90;;;;;;4922634;29;20372;-90
2021/10/06 06:49:04;;;;;;;2.38;2.17;;;16.70;99.90;;;;;;4922621;29;20047;-90
2021/10/06 06:51:32;;;;;;;1.90;1.80;;;16.70;99.90;;;;;;4938649;29;20077;-90
2021/10/06 06:54:13;;;;;;;2.45;2.25;;;16.70;99.90;;;;;;4936696;29;20047;-90
2021/10/06 06:56:40;;;;;;;1.95;1.85;;;16.70;99.90;;;;;;4923017;29;20292;-88
2021/10/06 06:59:20;;;;;;;1.70;1.60;;;16.60;99.90;;;;;;4938470;29;20035;-88
2021/10/06 07:01:48;;;;;;;1.92;1.83;;;16.70;99.90;;;;;;4938656;29;20051;-89
2021/10/06 07:04:24;;;;;;;2.72;2.53;;;16.70;99.90;;;;;;4938793;29;20044;-88
2021/10/06 07:06:57;;;;;;;2.75;2.45;;;16.80;99.90;;;;;;4939964;29;20066;-90
2021/10/06 07:09:25;;;;;;;2.28;2.13;;;16.80;99.90;;;;;;4917062;29;20062;-88
2021/10/06 07:11:52;;;;;;;1.70;1.60;;;16.90;99.90;;;;;;4904180;29;20051;-90
2021/10/06 07:14:20;;;;;;;5.60;2.88;;;17.00;99.90;;;;;;4904046;29;20048;-86
2021/10/06 07:16:51;;;;;;;5.22;3.80;;;16.90;99.90;;;;;;4904452;29;20067;-87
2021/10/06 07:19:18;;;;;;;2.50;2.30;;;16.90;99.90;;;;;;4919321;29;20044;-89
2021/10/06 07:21:49;;;;;;;1.95;1.85;;;16.90;99.90;;;;;;4904145;29;20118;-85
2021/10/06 07:24:16;;;;;;;1.80;1.70;;;16.90;99.90;;;;;;4903163;29;20130;-89
2021/10/06 07:26:46;;;;;;;2.25;2.10;;;16.90;99.90;;;;;;4904017;29;20391;-89
2021/10/06 07:29:14;;;;;;;1.98;1.88;;;17.10;99.90;;;;;;4921147;29;20134;-88
2021/10/06 07:31:50;;;;;;;3.63;2.95;;;17.20;99.90;;;;;;4921914;29;20110;-90
2021/10/06 07:34:17;;;;;;;1.98;1.88;;;17.30;99.90;;;;;;4955588;29;20146;-89
2021/10/06 07:36:44;;;;;;;1.60;1.50;;;17.20;99.90;;;;;;4937999;29;20047;-90
2021/10/06 07:39:12;;;;;;;1.60;1.50;;;17.10;99.90;;;;;;4933566;29;20099;-88
2021/10/06 07:41:55;;;;;;;1.80;1.70;;;17.30;99.90;;;;;;4902876;29;20163;-85
2021/10/06 07:44:23;;;;;;;3.65;3.35;;;17.40;99.90;;;;;;4901977;29;20063;-87
2021/10/06 07:46:57;;;;;;;1.70;1.60;;;17.60;99.90;;;;;;4903383;29;20083;-92
2021/10/06 07:49:28;;;;;;;1.60;1.50;;;17.70;99.90;;;;;;4925677;29;20069;-85
2021/10/06 07:52:29;;;;;;;1.73;1.60;;;17.80;99.90;;;;;;4920535;29;20070;-85
2021/10/06 07:55:10;;;;;;;1.83;1.73;;;18.00;99.90;;;;;;4943699;29;20400;-87
2021/10/06 07:57:56;;;;;;;1.70;1.60;;;18.00;99.90;;;;;;4917985;29;20107;-86
2021/10/06 08:00:27;;;;;;;3.55;2.55;;;18.10;99.90;;;;;;4902392;29;20094;-87
2021/10/06 08:03:24;;;;;;;3.10;2.85;;;18.50;99.90;;;;;;4917333;29;20132;-84
2021/10/06 08:06:04;;;;;;;2.22;2.03;;;18.90;99.90;;;;;;4916977;29;20484;-84
2021/10/06 08:08:31;;;;;;;1.58;1.48;;;19.10;99.90;;;;;;4902448;29;20052;-86
2021/10/06 08:11:09;;;;;;;1.40;1.30;;;19.10;99.90;;;;;;4901810;29;20150;-83
2021/10/06 08:13:39;;;;;;;1.50;1.40;;;19.10;99.90;;;;;;4887249;29;20151;-87
2021/10/06 08:17:23;;;;;;;2.40;1.85;;;19.40;99.90;;;;;;4923861;29;20110;-86
2021/10/06 08:24:07;;;;;;;1.38;1.27;;;19.50;99.90;;;;;;4928465;23;20513;-87
2021/10/06 08:26:44;;;;;;;1.30;1.20;;;19.90;99.90;;;;;;4920422;29;20050;-81
2021/10/06 08:29:14;;;;;;;1.20;1.10;;;19.80;99.90;;;;;;4936479;29;20039;-85
2021/10/06 08:31:48;;;;;;;1.30;1.20;;;20.20;99.90;;;;;;4917436;29;20044;-86
2021/10/06 08:34:23;;;;;;;1.30;1.20;;;20.20;99.90;;;;;;4902234;29;20408;-86
2021/10/06 08:36:56;;;;;;;4.63;2.30;;;20.40;99.90;;;;;;4900347;29;20058;-86
2021/10/06 08:39:28;;;;;;;1.48;1.38;;;20.40;99.90;;;;;;4902393;29;20127;-85
2021/10/06 08:41:56;;;;;;;1.38;1.27;;;20.70;99.90;;;;;;4916623;29;20518;-84
2021/10/06 08:44:32;;;;;;;1.00;1.00;;;20.80;99.90;;;;;;4917503;29;20054;-83
2021/10/06 08:47:08;;;;;;;1.80;1.70;;;21.00;99.90;;;;;;4934198;29;20082;-85
2021/10/06 08:49:39;;;;;;;1.00;1.00;;;20.90;99.90;;;;;;4901638;29;20047;-85
2021/10/06 08:52:08;;;;;;;0.80;0.80;;;20.70;99.90;;;;;;4916739;29;20055;-84
2021/10/06 08:54:40;;;;;;;0.80;0.80;;;20.40;99.90;;;;;;4941493;29;20126;-83
2021/10/06 08:57:15;;;;;;;0.90;0.90;;;20.60;99.90;;;;;;4936217;29;20043;-84
2021/10/06 08:59:46;;;;;;;2.75;2.45;;;20.90;99.90;;;;;;4921149;29;20043;-85
2021/10/06 09:02:36;;;;;;;0.90;0.90;;;20.60;99.90;;;;;;4923352;29;20118;-85
2021/10/06 09:05:29;;;;;;;;;;;20.40;99.90;;;;;;4914444;29;20058;-89
2021/10/06 09:08:05;;;;;;;0.90;0.90;;;20.20;99.90;;;;;;4922329;29;19926;-84
2021/10/06 09:10:35;;;;;;;1.15;1.10;;;20.20;99.90;;;;;;4935457;29;20419;-84
2021/10/06 09:13:08;;;;;;;1.00;1.00;;;20.20;99.90;;;;;;4936484;29;20424;-87
2021/10/06 09:16:10;;;;;;;1.00;1.00;;;20.10;99.90;;;;;;4938330;29;20046;-86
2021/10/06 09:18:36;;;;;;;1.65;1.55;;;20.10;99.90;;;;;;4936863;29;20082;-91
2021/10/06 09:21:09;;;;;;;2.13;1.92;;;20.10;99.90;;;;;;4935789;29;20131;-86
2021/10/06 09:23:42;;;;;;;5.05;2.65;;;20.10;99.90;;;;;;4898759;29;20059;-92
2021/10/06 09:26:11;;;;;;;1.20;1.10;;;19.70;99.90;;;;;;4888344;29;20048;-94
2021/10/06 09:28:46;;;;;;;1.00;1.00;;;19.70;99.90;;;;;;4887079;29;20104;-91
2021/10/06 09:31:17;;;;;;;0.90;0.90;;;19.90;99.90;;;;;;4930943;29;20046;-89
2021/10/06 09:33:53;;;;;;;1.38;1.27;;;20.00;99.90;;;;;;4922281;29;20048;-85
2021/10/06 09:36:31;;;;;;;1.60;1.50;;;20.10;99.90;;;;;;4904016;29;20054;-86
2021/10/06 09:39:07;;;;;;;1.83;1.70;;;20.10;99.90;;;;;;4937501;29;20040;-84
2021/10/06 09:41:42;;;;;;;2.20;2.00;;;20.20;99.90;;;;;;4937893;29;20043;-88
2021/10/06 09:44:23;;;;;;;2.80;2.17;;;20.20;99.90;;;;;;4922574;29;20745;-87
2021/10/06 09:47:03;;;;;;;0.90;0.90;;;20.20;99.90;;;;;;4921491;29;20411;-88
2021/10/06 09:49:37;;;;;;;1.40;1.30;;;20.30;99.90;;;;;;4920909;29;20073;-84
2021/10/06 09:52:21;;;;;;;1.27;1.20;;;20.00;99.90;;;;;;4904754;29;20094;-86
2021/10/06 09:54:52;;;;;;;1.00;1.00;;;20.00;99.90;;;;;;4904277;29;20048;-83
2021/10/06 09:57:30;;;;;;;1.55;1.45;;;20.20;99.90;;;;;;4920345;29;20131;-89
2021/10/06 10:00:02;;;;;;;1.08;1.05;;;20.40;99.90;;;;;;4904695;29;20052;-85
2021/10/06 10:02:29;;;;;;;1.77;1.50;;;20.40;99.90;;;;;;4938016;29;20143;-89
2021/10/06 10:04:57;;;;;;;1.42;1.33;;;20.40;99.90;;;;;;4921969;29;20108;-83
2021/10/06 10:07:27;;;;;;;1.00;1.00;;;20.20;99.90;;;;;;4905317;29;20047;-88
2021/10/06 10:09:54;;;;;;;1.00;1.00;;;20.10;99.90;;;;;;4938739;29;20047;-91
2021/10/06 10:12:25;;;;;;;1.75;1.65;;;20.00;99.90;;;;;;4921051;29;20075;-94
2021/10/06 10:14:54;;;;;;;2.00;1.83;;;20.00;99.90;;;;;;4922118;29;20086;-92
2021/10/06 10:17:22;;;;;;;1.35;1.25;;;20.00;99.90;;;;;;4938668;29;20071;-92
2021/10/06 10:19:56;;;;;;;1.55;1.45;;;20.00;99.90;;;;;;4938354;29;20108;-80
2021/10/06 10:22:28;;;;;;;1.90;1.80;;;20.10;99.90;;;;;;4905088;29;20048;-86
2021/10/06 10:24:57;;;;;;;1.48;1.38;;;19.90;99.90;;;;;;4905410;29;20051;-87
2021/10/06 10:27:25;;;;;;;1.05;1.02;;;19.80;99.90;;;;;;4937095;29;20058;-93
2021/10/06 10:30:02;;;;;;;1.70;1.60;;;19.90;99.90;;;;;;4939424;29;20550;-86
2021/10/06 10:32:44;;;;;;;1.30;1.20;;;19.80;99.90;;;;;;4958172;29;20507;-93
2021/10/06 10:35:12;;;;;;;1.17;1.10;;;19.80;99.90;;;;;;4939593;29;20057;-87
2021/10/06 10:37:46;;;;;;;1.05;1.05;;;19.80;99.90;;;;;;4939195;29;20134;-80
2021/10/06 10:40:34;;;;;;;1.38;1.27;;;19.90;99.90;;;;;;4936820;29;20039;-82
2021/10/06 10:43:06;;;;;;;1.10;1.10;;;19.90;99.90;;;;;;4913278;29;20046;-80
2021/10/06 10:45:59;;;;;;;1.55;1.45;;;20.00;99.90;;;;;;4927121;29;20118;-89
2021/10/06 10:48:30;;;;;;;1.83;1.73;;;20.00;99.90;;;;;;4926893;29;20040;-89
2021/10/06 10:50:57;;;;;;;3.42;2.92;;;20.00;99.90;;;;;;4917559;29;20086;-90
2021/10/06 10:53:49;;;;;;;1.25;1.15;;;20.10;99.90;;;;;;4909753;29;20076;-93
2021/10/06 10:56:42;;;;;;;1.10;1.10;;;20.10;99.90;;;;;;4891104;29;20142;-81
2021/10/06 10:59:12;;;;;;;6.07;1.95;;;20.00;99.90;;;;;;4918760;29;20052;-91
2021/10/06 11:01:59;;;;;;;1.23;1.15;;;20.00;99.90;;;;;;4917940;29;20123;-88
2021/10/06 11:04:34;;;;;;;1.20;1.10;;;19.90;99.90;;;;;;4918648;29;20433;-93
2021/10/06 11:07:13;;;;;;;1.00;1.00;;;20.00;99.90;;;;;;4900433;29;20076;-87
2021/10/06 11:09:45;;;;;;;1.27;1.17;;;20.20;99.90;;;;;;4916240;29;20043;-91
2021/10/06 11:12:12;;;;;;;1.58;1.48;;;20.10;99.90;;;;;;4919023;29;20048;-88
2021/10/06 11:14:44;;;;;;;1.20;1.15;;;19.90;99.90;;;;;;4904499;29;20051;-90
2021/10/06 11:17:31;;;;;;;2.20;2.00;;;19.90;99.90;;;;;;4904791;29;20055;-90
2021/10/06 11:20:53;;;;;;;1.77;1.65;;;20.00;99.90;;;;;;4923980;29;20058;-87
2021/10/06 11:23:35;;;;;;;1.00;1.00;;;20.20;99.90;;;;;;4919321;29;20059;-87
2021/10/06 11:26:08;;;;;;;1.52;1.17;;;20.20;99.90;;;;;;4936139;29;20044;-88
2021/10/06 11:41:46;;;;;;;2.72;2.53;;;20.50;99.90;;;;;;4933389;29;20054;-85
2021/10/06 11:44:31;;;;;;;1.25;1.15;;;20.40;99.90;;;;;;4903727;29;20090;-93
2021/10/06 11:47:03;;;;;;;1.35;1.25;;;20.40;99.90;;;;;;4903314;29;20134;-89
2021/10/06 11:49:49;;;;;;;1.40;1.30;;;20.60;99.90;;;;;;4919463;29;20048;-84
2021/10/06 11:52:31;;;;;;;2.20;2.00;;;20.80;99.90;;;;;;4918764;29;20039;-84
2021/10/06 11:54:58;;;;;;;1.00;1.00;;;20.50;99.90;;;;;;4899748;29;20048;-87
2021/10/06 11:57:49;;;;;;;1.33;1.27;;;20.30;99.90;;;;;;4900230;29;20131;-87
2021/10/06 12:00:17;;;;;;;2.35;1.40;;;20.60;99.90;;;;;;4902126;29;20052;-88
2021/10/06 12:02:47;;;;;;;1.30;1.20;;;21.10;99.90;;;;;;4913524;29;20115;-92
2021/10/06 12:05:19;;;;;;;1.52;1.42;;;21.10;99.90;;;;;;4891841;29;20504;-92
2021/10/06 12:08:37;;;;;;;1.35;1.13;;;21.30;99.90;;;;;;4894969;29;20148;-90
2021/10/06 12:11:29;;;;;;;1.45;1.35;;;21.20;99.90;;;;;;4898227;29;20051;-88
2021/10/06 12:14:34;;;;;;;0.85;0.85;;;20.90;99.90;;;;;;4897965;29;20056;-91
2021/10/06 12:17:03;;;;;;;1.13;1.10;;;20.80;99.90;;;;;;4912649;29;20104;-85
2021/10/06 12:19:31;;;;;;;1.00;1.00;;;21.20;99.90;;;;;;4906556;29;20075;-86
2021/10/06 12:21:59;;;;;;;1.10;1.10;;;21.20;99.90;;;;;;4905810;29;20052;-86
2021/10/06 12:24:29;;;;;;;1.65;1.33;;;21.40;99.90;;;;;;4908512;29;20051;-90
2021/10/06 12:26:57;;;;;;;1.17;1.10;;;21.30;99.90;;;;;;4924398;29;20167;-84
2021/10/06 12:29:31;;;;;;;1.40;1.30;;;21.50;99.90;;;;;;4906109;29;20369;-87
2021/10/06 12:32:15;;;;;;;0.90;0.90;;;21.80;99.90;;;;;;4893042;29;20048;-88
2021/10/06 12:34:44;;;;;;;1.08;1.08;;;22.00;99.90;;;;;;4909266;29;20044;-91
2021/10/06 12:37:13;;;;;;;1.48;1.38;;;22.40;99.90;;;;;;4908069;29;20091;-87
2021/10/06 12:39:44;;;;;;;1.25;1.15;;;22.50;99.90;;;;;;4906729;29;20526;-92
2021/10/06 12:42:12;;;;;;;;;;;22.20;99.90;;;;;;4910491;29;20052;-88
2021/10/06 12:44:43;;;;;;;0.82;0.82;;;22.00;99.90;;;;;;4890640;29;20027;-92
2021/10/06 12:47:31;;;;;;;0.90;0.90;;;22.00;99.90;;;;;;4926920;29;20059;-86
2021/10/06 12:50:08;;;;;;;1.10;1.08;;;22.00;99.90;;;;;;4926162;29;20043;-89
2021/10/06 12:52:37;;;;;;;1.50;1.40;;;22.00;99.90;;;;;;4913508;29;20115;-89
2021/10/06 12:55:12;;;;;;;1.20;1.10;;;22.10;99.90;;;;;;4926219;29;20127;-89
2021/10/06 12:57:41;;;;;;;0.90;0.90;;;22.20;99.90;;;;;;4920919;29;20036;-92
2021/10/06 13:00:23;;;;;;;1.35;1.25;;;22.30;99.90;;;;;;4910795;29;20060;-87
2021/10/06 13:02:51;;;;;;;1.52;1.42;;;22.40;99.90;;;;;;4936537;29;20048;-89
2021/10/06 13:05:19;;;;;;;1.38;1.27;;;22.60;99.90;;;;;;4917587;29;20099;-85
2021/10/06 13:07:47;;;;;;;0.90;0.90;;;22.40;99.90;;;;;;4934707;29;20050;-89
2021/10/06 13:10:14;;;;;;;1.10;1.00;;;22.40;99.90;;;;;;4935061;29;20123;-85
2021/10/06 13:12:43;;;;;;;0.80;0.80;;;22.40;99.90;;;;;;4934853;29;20058;-88
2021/10/06 13:15:10;;;;;;;0.90;0.90;;;22.40;99.90;;;;;;4920277;29;20052;-89
2021/10/06 13:17:38;;;;;;;1.20;1.10;;;22.30;99.60;;;;;;4936263;29;20107;-89
2021/10/06 13:20:06;;;;;;;1.58;1.48;;;22.30;99.90;;;;;;4936415;29;20449;-89
2021/10/06 13:22:34;;;;;;;1.27;1.17;;;22.20;99.80;;;;;;4936023;29;20561;-92
2021/10/06 13:25:02;;;;;;;0.90;0.90;;;22.00;99.30;;;;;;4935904;29;20131;-90
2021/10/06 13:27:29;;;;;;;9.38;3.13;;;21.90;99.40;;;;;;4919274;29;20067;-85
2021/10/06 13:29:57;;;;;;;1.77;1.15;;;21.80;99.50;;;;;;4903726;29;20511;-88
2021/10/06 13:32:25;;;;;;;1.08;1.00;;;21.90;99.60;;;;;;4918935;29;20510;-88
2021/10/06 13:35:05;;;;;;;1.00;0.95;;;22.10;99.70;;;;;;4918625;29;20052;-87
2021/10/06 13:37:32;;;;;;;0.98;0.98;;;21.90;99.50;;;;;;4903982;29;20040;-92
2021/10/06 13:40:00;;;;;;;1.05;1.05;;;21.80;99.90;;;;;;4903493;29;20054;-90
2021/10/06 13:42:30;;;;;;;1.00;1.00;;;21.80;99.60;;;;;;4919030;29;20043;-89
2021/10/06 13:44:58;;;;;;;2.20;2.00;;;21.80;99.80;;;;;;4934539;29;20050;-90
2021/10/06 13:48:16;;;;;;;1.23;1.13;;;21.70;99.30;;;;;;4919871;29;20043;-86
2021/10/06 13:54:23;;;;;;;0.85;0.85;;;21.80;99.20;;;;;;4921515;29;20503;-88
2021/10/06 13:56:50;;;;;;;0.80;0.80;;;21.90;98.80;;;;;;4921564;29;20499;-85
2021/10/06 13:59:18;;;;;;;1.05;1.02;;;21.70;98.70;;;;;;4934615;29;20073;-90
2021/10/06 14:01:47;;;;;;;1.77;1.67;;;21.60;99.00;;;;;;4921140;29;20047;-88
2021/10/06 14:04:14;;;;;;;0.90;0.90;;;21.70;99.00;;;;;;4938376;29;20551;-82
2021/10/06 14:06:42;;;;;;;1.02;1.02;;;21.70;98.90;;;;;;4919959;29;20044;-86
2021/10/06 14:09:09;;;;;;;2.28;1.10;;;21.80;98.70;;;;;;4920380;29;20107;-81
2021/10/06 14:11:36;;;;;;;1.13;1.10;;;21.90;98.60;;;;;;4920191;29;20132;-82
2021/10/06 14:14:04;;;;;;;0.90;0.90;;;21.80;98.70;;;;;;4918943;29;20052;-87
2021/10/06 14:16:31;;;;;;;0.95;0.95;;;21.70;98.70;;;;;;4918749;29;20453;-88